Time;durP1;ratioP1;P1;durP2;ratioP2;P2;SDS_P1;SDS_P2;PMS_P1;PMS_P2;Temp;Humidity;BMP_temperature;BMP_pressure;BME280_temperature;BME280_humidity;BME280_pressure;Samples;Min_cycle;Max_cycle;Signal;HPM_P1;HPM_P2
2021/01/30 00:00:48;;;;;;;9.68;4.32;;;;;;;-6.23;80.35;99359.56;5025995;28;20026;-76
2021/01/30 00:03:14;;;;;;;12.02;5.38;;;;;;;-6.27;80.18;99352.63;5025983;28;20030;-75
2021/01/30 00:05:39;;;;;;;12.20;4.38;;;;;;;-6.28;80.32;99361.88;5026130;28;20026;-76
2021/01/30 00:08:06;;;;;;;14.35;6.85;;;;;;;-6.32;80.49;99360.00;5026082;28;20148;-75
2021/01/30 00:10:31;;;;;;;8.07;4.55;;;;;;;-6.36;80.32;99361.53;5024487;28;20036;-75
2021/01/30 00:12:57;;;;;;;13.18;5.88;;;;;;;-6.39;80.42;99358.88;5025482;28;20025;-75
2021/01/30 00:15:25;;;;;;;15.18;6.47;;;;;;;-6.40;80.33;99369.78;5025576;28;20087;-75
2021/01/30 00:17:52;;;;;;;13.60;6.55;;;;;;;-6.40;80.12;99363.84;5025593;28;20075;-75
2021/01/30 00:20:22;;;;;;;13.38;6.30;;;;;;;-6.42;80.09;99362.94;5025292;28;20105;-75
2021/01/30 00:22:50;;;;;;;14.43;6.72;;;;;;;-6.42;80.03;99362.94;5025669;28;20029;-74
2021/01/30 00:25:16;;;;;;;16.20;7.05;;;;;;;-6.44;80.12;99372.13;5025575;28;20616;-75
2021/01/30 00:27:41;;;;;;;12.02;7.10;;;;;;;-6.48;79.86;99364.41;5024030;28;20094;-74
2021/01/30 00:30:10;;;;;;;12.32;5.80;;;;;;;-6.52;79.92;99357.50;5023960;28;20025;-75
2021/01/30 00:32:36;;;;;;;13.73;6.10;;;;;;;-6.52;79.94;99359.16;5025768;28;20040;-75
2021/01/30 00:35:02;;;;;;;14.05;7.53;;;;;;;-6.58;79.92;99356.38;5025537;28;20057;-74
2021/01/30 00:37:27;;;;;;;14.52;7.88;;;;;;;-6.56;80.00;99355.63;5025628;28;20044;-74
2021/01/30 00:39:53;;;;;;;14.43;7.32;;;;;;;-6.55;79.86;99357.34;5025865;28;20026;-74
2021/01/30 00:42:22;;;;;;;12.68;6.97;;;;;;;-6.56;79.78;99355.63;5025288;28;20033;-74
2021/01/30 00:44:47;;;;;;;15.15;7.30;;;;;;;-6.58;79.75;99357.22;5025229;28;20154;-73
2021/01/30 00:47:13;;;;;;;14.65;7.50;;;;;;;-6.57;79.75;99360.59;5025213;28;20442;-74
2021/01/30 00:49:43;;;;;;;14.98;7.00;;;;;;;-6.59;79.73;99358.00;5023489;28;20032;-74
2021/01/30 00:52:10;;;;;;;17.48;7.75;;;;;;;-6.62;79.89;99365.47;5023872;28;20053;-74
2021/01/30 00:54:35;;;;;;;18.77;7.72;;;;;;;-6.66;79.50;99359.41;5025130;28;20022;-74
2021/01/30 00:57:00;;;;;;;17.48;7.90;;;;;;;-6.67;79.77;99351.75;5025074;28;20032;-75
2021/01/30 00:59:26;;;;;;;15.75;7.43;;;;;;;-6.72;79.58;99347.38;5024991;28;20065;-73
2021/01/30 01:01:52;;;;;;;16.00;7.18;;;;;;;-6.70;79.48;99356.69;5024964;28;20022;-74
2021/01/30 01:04:19;;;;;;;16.48;7.68;;;;;;;-6.71;79.46;99350.78;5025016;28;20060;-74
2021/01/30 01:06:45;;;;;;;15.55;7.47;;;;;;;-6.72;79.52;99349.91;5025001;28;20025;-74
2021/01/30 01:09:10;;;;;;;17.90;7.47;;;;;;;-6.76;79.39;99352.22;5024543;28;20367;-73
2021/01/30 01:11:37;;;;;;;17.60;7.85;;;;;;;-6.78;79.42;99349.63;5024695;28;20025;-75
2021/01/30 01:14:04;;;;;;;17.42;7.65;;;;;;;-6.77;79.37;99346.31;5024324;28;20117;-74
2021/01/30 01:16:29;;;;;;;17.52;7.80;;;;;;;-6.80;79.35;99343.66;5024925;28;20110;-74
2021/01/30 01:18:57;;;;;;;21.45;8.45;;;;;;;-6.77;79.41;99348.84;5022996;28;20061;-73
2021/01/30 01:21:23;;;;;;;20.98;7.80;;;;;;;-6.79;79.33;99352.97;5023270;28;20030;-74
2021/01/30 01:23:48;;;;;;;17.70;8.38;;;;;;;-6.81;78.97;99344.47;5024434;28;20278;-75
2021/01/30 01:26:16;;;;;;;18.17;8.00;;;;;;;-6.83;79.25;99351.09;5024376;28;20022;-75
2021/01/30 01:28:42;;;;;;;15.95;7.03;;;;;;;-6.86;79.42;99346.78;5024218;28;20017;-75
2021/01/30 01:31:09;;;;;;;18.30;7.45;;;;;;;-6.85;79.49;99348.50;5024294;28;20118;-75
2021/01/30 01:33:34;;;;;;;17.08;7.60;;;;;;;-6.84;79.75;99350.22;5024151;28;20041;-75
2021/01/30 01:36:00;;;;;;;16.17;7.15;;;;;;;-6.86;79.32;99343.38;5024374;28;20033;-75
2021/01/30 01:38:26;;;;;;;19.83;8.02;;;;;;;-6.87;79.13;99347.56;5024037;28;20085;-75
2021/01/30 01:40:52;;;;;;;17.75;8.18;;;;;;;-6.90;79.29;99344.06;5024085;28;20041;-75
2021/01/30 01:43:21;;;;;;;16.80;8.15;;;;;;;-6.96;79.04;99332.00;5023837;28;20038;-74
2021/01/30 01:46:01;;;;;;;16.38;7.57;;;;;;;-6.91;79.01;99343.19;5024077;28;20094;-75
2021/01/30 01:48:32;;;;;;;19.63;7.75;;;;;;;-6.98;78.87;99341.19;5024126;28;20029;-75
2021/01/30 01:50:58;;;;;;;19.00;7.20;;;;;;;-7.03;78.68;99325.84;5023932;28;20033;-74
2021/01/30 01:53:27;;;;;;;16.25;7.90;;;;;;;-6.99;78.75;99347.88;5023898;28;20025;-74
2021/01/30 01:55:58;;;;;;;18.70;7.97;;;;;;;-6.98;78.82;99346.22;5023724;28;20102;-74
2021/01/30 01:58:26;;;;;;;14.18;7.82;;;;;;;-6.99;78.62;99345.34;5023546;28;20475;-74
2021/01/30 02:00:53;;;;;;;16.45;7.13;;;;;;;-6.99;78.72;99347.00;5022082;28;20022;-74
2021/01/30 02:03:19;;;;;;;19.58;7.90;;;;;;;-7.01;78.74;99343.56;5023787;28;20120;-75
2021/01/30 02:05:45;;;;;;;18.98;7.43;;;;;;;-7.02;78.70;99347.75;5023945;28;20030;-75
2021/01/30 02:08:15;;;;;;;16.00;8.30;;;;;;;-7.05;78.67;99329.94;5023635;28;20026;-74
2021/01/30 02:10:44;;;;;;;21.70;7.55;;;;;;;-7.03;78.51;99342.63;5023687;28;20030;-73
2021/01/30 02:13:20;;;;;;;16.08;7.28;;;;;;;-7.06;78.44;99340.81;5023241;28;20073;-73
2021/01/30 02:15:48;;;;;;;20.77;8.68;;;;;;;-7.07;78.49;99336.56;5023376;28;20101;-74
2021/01/30 02:18:20;;;;;;;20.27;8.05;;;;;;;-7.07;78.53;99331.53;5024142;28;20026;-74
2021/01/30 02:20:57;;;;;;;18.77;7.75;;;;;;;-7.06;78.64;99325.66;5027673;28;20116;-73
2021/01/30 02:23:34;;;;;;;14.10;6.60;;;;;;;-7.05;78.51;99329.94;5027680;28;20076;-73
2021/01/30 02:26:27;;;;;;;18.63;8.00;;;;;;;-7.01;78.61;99323.38;5027663;28;20033;-74
2021/01/30 02:29:16;;;;;;;17.48;6.82;;;;;;;-6.95;78.57;99323.66;5027130;28;20080;-74
2021/01/30 02:32:10;;;;;;;18.73;8.30;;;;;;;-6.95;78.69;99321.13;5027584;28;20034;-74
2021/01/30 02:35:07;;;;;;;16.85;7.28;;;;;;;-7.00;78.83;99318.41;5027259;28;20342;-74
2021/01/30 02:37:49;;;;;;;15.68;6.38;;;;;;;-7.03;78.93;99325.84;5027193;28;20021;-74
2021/01/30 02:40:20;;;;;;;16.58;7.53;;;;;;;-7.00;78.99;99312.47;5027203;28;20048;-74
2021/01/30 02:43:01;;;;;;;15.05;7.07;;;;;;;-6.99;79.16;99320.13;5027137;28;20025;-73
2021/01/30 02:45:29;;;;;;;18.85;8.55;;;;;;;-7.01;79.21;99315.81;5026957;28;20053;-75
2021/01/30 02:48:23;;;;;;;16.02;7.38;;;;;;;-6.97;78.96;99318.53;5027042;28;20033;-75
2021/01/30 02:50:53;;;;;;;16.67;7.28;;;;;;;-6.96;78.87;99321.91;5025691;28;20029;-74
2021/01/30 02:53:23;;;;;;;17.48;7.50;;;;;;;-6.98;78.73;99319.31;5026879;28;20056;-73
2021/01/30 02:55:52;;;;;;;13.93;6.75;;;;;;;-7.07;78.79;99301.25;5026794;28;20117;-73
2021/01/30 02:58:20;;;;;;;19.10;7.88;;;;;;;-7.01;78.82;99311.59;5026293;28;20037;-74
2021/01/30 03:00:47;;;;;;;16.58;7.13;;;;;;;-7.03;78.85;99308.19;5026660;28;20030;-74
2021/01/30 03:03:13;;;;;;;15.95;7.28;;;;;;;-7.02;79.19;99307.38;5026728;28;20108;-75
2021/01/30 03:05:39;;;;;;;17.58;8.07;;;;;;;-6.97;78.83;99307.56;5026770;28;20102;-75
2021/01/30 03:08:38;;;;;;;20.05;9.13;;;;;;;-6.95;78.96;99303.47;5026465;28;20161;-74
2021/01/30 03:11:27;;;;;;;19.20;7.10;;;;;;;-6.93;79.04;99296.81;5026570;28;20033;-74
2021/01/30 03:13:57;;;;;;;16.88;7.90;;;;;;;-6.98;78.60;99284.00;5025545;28;20042;-75
2021/01/30 03:16:38;;;;;;;14.55;6.80;;;;;;;-7.03;78.71;99279.53;5026583;28;20085;-74
2021/01/30 03:19:09;;;;;;;13.30;6.53;;;;;;;-6.97;78.39;99287.38;5026266;28;20026;-74
2021/01/30 03:21:36;;;;;;;14.88;6.43;;;;;;;-7.02;78.50;99286.31;5025108;28;20022;-75
2021/01/30 03:24:03;;;;;;;12.50;6.43;;;;;;;-7.06;78.42;99292.88;5026287;28;20034;-74
2021/01/30 03:26:31;;;;;;;18.23;8.60;;;;;;;-7.08;78.93;99289.44;5025072;28;20032;-74
2021/01/30 03:28:57;;;;;;;18.60;7.53;;;;;;;-7.10;79.11;99288.50;5025829;28;20048;-73
2021/01/30 03:31:23;;;;;;;14.57;7.35;;;;;;;-7.12;79.44;99292.59;5026129;28;20029;-74
2021/01/30 03:33:49;;;;;;;14.68;7.40;;;;;;;-7.12;79.35;99290.94;5024694;28;20025;-74
2021/01/30 03:36:15;;;;;;;15.57;6.60;;;;;;;-7.18;79.39;99282.22;5026170;28;20053;-75
2021/01/30 03:38:40;;;;;;;16.75;7.93;;;;;;;-7.18;79.96;99282.22;5026199;28;20026;-75
2021/01/30 03:41:06;;;;;;;14.13;7.05;;;;;;;-7.26;80.32;99272.69;5024689;28;20309;-75
2021/01/30 03:43:32;;;;;;;14.88;7.53;;;;;;;-7.19;80.21;99281.41;5025872;28;20447;-75
2021/01/30 03:45:57;;;;;;;17.58;7.65;;;;;;;-7.17;80.21;99283.97;5025942;28;20061;-75
2021/01/30 03:48:23;;;;;;;16.63;7.05;;;;;;;-7.16;80.14;99276.50;5025933;28;20074;-74
2021/01/30 03:50:48;;;;;;;16.05;7.38;;;;;;;-7.16;80.23;99273.97;5025562;28;20056;-76
2021/01/30 03:53:13;;;;;;;17.20;7.95;;;;;;;-7.12;80.14;99278.34;5025879;28;20032;-75
2021/01/30 03:55:39;;;;;;;16.90;7.80;;;;;;;-7.12;80.17;99283.38;5024180;28;20021;-75
2021/01/30 03:58:05;;;;;;;23.55;7.55;;;;;;;-7.10;80.02;99273.34;5025617;28;20026;-75
2021/01/30 04:00:31;;;;;;;15.27;6.75;;;;;;;-7.11;79.89;99266.59;5025261;28;20022;-75
2021/01/30 04:02:57;;;;;;;17.15;5.90;;;;;;;-7.16;79.77;99265.53;5025579;28;20108;-75
2021/01/30 04:05:25;;;;;;;13.88;6.28;;;;;;;-7.20;79.91;99267.03;5025492;28;20109;-75
2021/01/30 04:07:52;;;;;;;15.60;8.10;;;;;;;-7.20;80.17;99273.75;5025570;28;20026;-74
2021/01/30 04:10:22;;;;;;;14.38;6.95;;;;;;;-7.22;80.02;99276.22;5025687;28;20082;-74
2021/01/30 04:12:48;;;;;;;20.40;8.55;;;;;;;-7.20;79.83;99279.66;5025520;28;20080;-73
2021/01/30 04:15:16;;;;;;;16.17;7.03;;;;;;;-7.25;80.08;99281.97;5025632;28;20030;-74
2021/01/30 04:17:42;;;;;;;16.13;7.05;;;;;;;-7.21;80.10;99277.94;5025557;28;20017;-75
2021/01/30 04:20:09;;;;;;;21.63;7.90;;;;;;;-7.23;80.02;99275.34;5024998;28;20086;-74
2021/01/30 04:22:35;;;;;;;17.38;8.10;;;;;;;-7.30;80.10;99273.31;5023993;28;20493;-74
2021/01/30 04:25:00;;;;;;;18.70;7.93;;;;;;;-7.27;79.98;99278.53;5025413;28;20053;-74
2021/01/30 04:27:25;;;;;;;23.23;9.10;;;;;;;-7.38;80.11;99257.00;5025198;28;20044;-74
2021/01/30 04:29:51;;;;;;;22.42;9.48;;;;;;;-7.28;80.13;99279.31;5024960;28;20022;-75
2021/01/30 04:32:16;;;;;;;21.48;7.85;;;;;;;-7.28;80.07;99274.25;5025335;28;20037;-74
2021/01/30 04:34:41;;;;;;;19.55;8.18;;;;;;;-7.34;80.08;99268.94;5023786;28;20059;-75
2021/01/30 04:37:07;;;;;;;18.38;7.38;;;;;;;-7.31;79.94;99268.22;5025084;28;20025;-75
2021/01/30 04:39:32;;;;;;;23.23;9.13;;;;;;;-7.36;79.92;99266.34;5024966;28;20025;-74
2021/01/30 04:42:08;;;;;;;20.98;7.53;;;;;;;-7.38;80.10;99272.13;5024745;28;20040;-74
2021/01/30 04:44:55;;;;;;;19.00;8.15;;;;;;;-7.36;80.10;99278.97;5024775;28;20510;-74
2021/01/30 04:47:27;;;;;;;19.05;8.85;;;;;;;-7.28;79.96;99276.78;5025017;28;20030;-74
2021/01/30 04:50:06;;;;;;;32.28;7.15;;;;;;;-7.27;79.53;99270.97;5024790;28;20524;-75
2021/01/30 04:53:06;;;;;;;89.63;12.82;;;;;;;-7.34;79.83;99276.50;5024860;28;20101;-74
2021/01/30 04:55:53;;;;;;;29.08;9.00;;;;;;;-7.37;80.22;99269.69;5016226;28;20489;-74
2021/01/30 04:58:41;;;;;;;23.58;9.73;;;;;;;-7.26;80.10;99267.63;5024624;28;20041;-73
2021/01/30 05:01:20;;;;;;;26.08;9.68;;;;;;;-7.19;79.98;99258.69;5024527;28;20391;-74
2021/01/30 05:04:01;;;;;;;21.38;9.25;;;;;;;-7.23;79.85;99257.69;5023255;28;20268;-74
2021/01/30 05:06:46;;;;;;;24.00;8.88;;;;;;;-7.31;80.15;99261.50;5024805;28;20085;-76
2021/01/30 05:09:22;;;;;;;29.15;8.88;;;;;;;-7.30;80.01;99258.19;5024371;28;20037;-74
2021/01/30 05:12:02;;;;;;;35.63;11.43;;;;;;;-7.39;80.14;99237.59;5023307;28;20026;-75
2021/01/30 05:14:34;;;;;;;29.88;9.23;;;;;;;-7.35;80.04;99249.56;5024238;28;20044;-75
2021/01/30 05:17:25;;;;;;;34.90;7.78;;;;;;;-7.42;79.72;99243.38;5024518;28;20057;-75
2021/01/30 05:19:58;;;;;;;23.63;8.07;;;;;;;-7.52;79.79;99241.22;5024190;28;20025;-75
2021/01/30 05:22:33;;;;;;;22.02;8.50;;;;;;;-7.61;79.79;99249.25;5024399;28;20026;-75
2021/01/30 05:24:58;;;;;;;22.17;9.07;;;;;;;-7.66;80.06;99253.19;5024276;28;20030;-75
2021/01/30 05:27:37;;;;;;;21.70;8.73;;;;;;;-7.71;80.01;99256.38;5024335;28;20097;-75
2021/01/30 05:30:13;;;;;;;24.42;8.30;;;;;;;-7.75;80.04;99243.56;5023739;28;20486;-75
2021/01/30 05:33:11;;;;;;;21.35;9.00;;;;;;;-7.79;79.78;99242.56;5024417;28;20025;-75
2021/01/30 05:35:42;;;;;;;20.73;7.13;;;;;;;-7.88;80.00;99237.97;5024311;28;20018;-75
2021/01/30 05:38:18;;;;;;;10.63;5.10;;;;;;;-7.85;80.59;99237.22;5024071;28;20025;-75
2021/01/30 05:40:56;;;;;;;20.35;8.40;;;;;;;-7.74;80.73;99231.03;5024013;28;20030;-75
2021/01/30 05:43:44;;;;;;;18.05;7.75;;;;;;;-7.66;80.50;99230.50;5023826;28;20029;-75
2021/01/30 05:46:20;;;;;;;27.52;8.98;;;;;;;-7.60;80.13;99229.16;5023840;28;20037;-75
2021/01/30 05:48:46;;;;;;;25.42;8.85;;;;;;;-7.55;80.10;99231.88;5023877;28;20246;-75
2021/01/30 05:51:30;;;;;;;20.92;8.98;;;;;;;-7.71;79.99;99210.13;5023974;28;20030;-74
2021/01/30 05:53:55;;;;;;;19.02;8.05;;;;;;;-7.52;79.97;99221.91;5023146;28;20022;-75
2021/01/30 05:56:20;;;;;;;21.23;8.23;;;;;;;-7.54;79.85;99222.66;5023759;28;20028;-75
2021/01/30 05:58:47;;;;;;;22.83;9.52;;;;;;;-7.51;79.71;99223.66;5022251;28;20018;-76
2021/01/30 06:01:15;;;;;;;17.40;7.72;;;;;;;-7.53;79.77;99229.41;5023653;28;20022;-75
2021/01/30 06:04:04;;;;;;;20.08;8.63;;;;;;;-7.55;79.47;99221.78;5023740;28;20049;-75
2021/01/30 06:06:39;;;;;;;16.88;6.97;;;;;;;-7.66;79.75;99222.94;5023847;28;20026;-76
2021/01/30 06:09:31;;;;;;;21.20;7.63;;;;;;;-7.67;79.78;99228.78;5022424;28;20014;-76
2021/01/30 06:11:56;;;;;;;16.35;7.40;;;;;;;-7.68;79.95;99235.47;5007007;28;20036;-77
2021/01/30 06:14:31;;;;;;;19.00;7.45;;;;;;;-7.64;79.79;99227.28;5023112;28;20054;-76
2021/01/30 06:17:00;;;;;;;19.40;6.82;;;;;;;-7.55;79.94;99234.41;5023492;28;20089;-74
2021/01/30 06:19:34;;;;;;;16.50;7.00;;;;;;;-7.41;80.11;99226.59;5023278;28;20018;-74
2021/01/30 06:22:19;;;;;;;18.50;8.30;;;;;;;-7.24;80.00;99233.25;5023474;28;20036;-74
2021/01/30 06:24:45;;;;;;;18.23;7.45;;;;;;;-7.10;80.04;99231.34;5023521;28;20025;-74
2021/01/30 06:27:30;;;;;;;19.88;7.78;;;;;;;-7.01;80.24;99230.03;5023477;28;20128;-74
2021/01/30 06:30:05;;;;;;;16.50;8.18;;;;;;;-6.95;79.97;99226.88;5023125;28;20457;-74
2021/01/30 06:32:40;;;;;;;16.88;7.57;;;;;;;-6.91;79.98;99216.13;5023544;28;20018;-74
2021/01/30 06:35:18;;;;;;;18.17;8.73;;;;;;;-6.84;80.26;99224.00;5023457;28;20026;-75
2021/01/30 06:37:54;;;;;;;20.02;8.50;;;;;;;-6.76;80.15;99224.38;5023440;28;20025;-74
2021/01/30 06:40:29;;;;;;;22.75;9.95;;;;;;;-6.69;80.15;99220.41;5021745;28;20034;-75
2021/01/30 06:43:22;;;;;;;20.35;8.05;;;;;;;-6.60;80.56;99223.31;5023443;28;20022;-73
2021/01/30 06:45:48;;;;;;;20.25;8.13;;;;;;;-6.52;80.83;99215.22;5023307;28;20088;-74
2021/01/30 06:48:44;;;;;;;17.98;7.80;;;;;;;-6.38;80.91;99214.13;5023276;28;20026;-76
2021/01/30 06:51:29;;;;;;;25.40;9.90;;;;;;;-6.24;80.98;99212.16;5023293;28;20018;-74
2021/01/30 06:54:14;;;;;;;17.88;7.82;;;;;;;-6.11;80.98;99220.22;5023090;28;20046;-73
2021/01/30 06:56:39;;;;;;;18.42;7.80;;;;;;;-5.98;80.70;99214.81;5023368;28;20021;-73
2021/01/30 06:59:15;;;;;;;22.15;9.25;;;;;;;-5.89;80.62;99208.38;5023046;28;20079;-73
2021/01/30 07:01:43;;;;;;;17.20;8.38;;;;;;;-5.79;80.51;99209.59;5023223;28;20018;-73
2021/01/30 07:04:27;;;;;;;17.90;8.73;;;;;;;-5.76;80.34;99212.22;5021967;28;20022;-73
2021/01/30 07:07:29;;;;;;;19.85;8.27;;;;;;;-5.75;80.12;99209.75;5026950;28;20406;-73
2021/01/30 07:09:57;;;;;;;17.25;8.68;;;;;;;-5.77;80.03;99208.88;5025431;28;20018;-76
2021/01/30 07:12:49;;;;;;;15.68;7.68;;;;;;;-5.86;79.67;99208.47;5026888;28;20120;-73
2021/01/30 07:15:27;;;;;;;16.98;7.63;;;;;;;-5.99;79.63;99197.91;5025496;28;20471;-75
2021/01/30 07:18:22;;;;;;;18.52;8.30;;;;;;;-6.14;79.57;99198.22;5026904;28;20022;-73
2021/01/30 07:21:03;;;;;;;17.98;8.15;;;;;;;-6.12;79.96;99204.19;5024922;28;20037;-73
2021/01/30 07:23:53;;;;;;;16.55;8.23;;;;;;;-6.11;80.01;99203.41;5026308;28;20092;-73
2021/01/30 07:26:28;;;;;;;15.68;7.95;;;;;;;-6.12;80.10;99199.13;5024992;28;20037;-73
2021/01/30 07:29:01;;;;;;;16.83;6.75;;;;;;;-6.03;80.49;99205.31;5026255;28;20034;-73
2021/01/30 07:31:32;;;;;;;15.98;7.20;;;;;;;-5.94;80.94;99195.56;5026522;28;20025;-74
2021/01/30 07:34:13;;;;;;;18.07;7.20;;;;;;;-5.82;80.97;99200.25;5026504;28;20033;-74
2021/01/30 07:36:44;;;;;;;16.80;8.07;;;;;;;-5.73;80.94;99199.72;5026448;28;20735;-74
2021/01/30 07:39:24;;;;;;;14.13;6.22;;;;;;;-5.68;81.08;99194.81;5026364;28;20089;-73
2021/01/30 07:41:49;;;;;;;17.85;6.80;;;;;;;-5.58;80.86;99199.44;5026369;28;20026;-74
2021/01/30 07:44:49;;;;;;;13.65;5.97;;;;;;;-5.53;81.03;99190.38;5026144;28;20026;-74
2021/01/30 07:47:23;;;;;;;14.85;6.72;;;;;;;-5.50;81.14;99198.06;5024978;28;20114;-75
2021/01/30 07:50:03;;;;;;;15.00;7.70;;;;;;;-5.40;81.22;99191.66;5026058;28;20018;-74
2021/01/30 07:53:10;;;;;;;13.15;6.95;;;;;;;-5.31;80.96;99191.13;5026281;28;20100;-74
2021/01/30 07:55:37;;;;;;;15.82;6.72;;;;;;;-5.28;81.06;99181.13;5024722;28;20109;-74
2021/01/30 07:58:29;;;;;;;14.55;7.05;;;;;;;-5.28;81.02;99173.53;5026171;28;20022;-74
2021/01/30 08:01:08;;;;;;;12.52;6.70;;;;;;;-5.22;80.84;99183.00;5026000;28;20033;-73
2021/01/30 08:04:07;;;;;;;17.05;7.15;;;;;;;-5.23;80.85;99179.63;5025894;28;20049;-74
2021/01/30 08:06:41;;;;;;;13.75;5.90;;;;;;;-5.25;80.88;99176.16;5024741;28;20052;-74
2021/01/30 08:09:20;;;;;;;13.32;6.47;;;;;;;-5.25;80.76;99180.34;5025750;28;20024;-74
2021/01/30 08:11:55;;;;;;;14.45;6.30;;;;;;;-5.22;80.71;99178.81;5025660;28;20026;-74
2021/01/30 08:14:26;;;;;;;9.52;4.68;;;;;;;-5.18;80.85;99179.78;5023939;28;20096;-74
2021/01/30 08:17:28;;;;;;;9.07;4.63;;;;;;;-5.16;81.03;99180.69;5024791;28;20128;-73
2021/01/30 08:20:13;;;;;;;12.85;6.00;;;;;;;-4.92;81.92;99171.38;5025540;28;20513;-74
2021/01/30 08:23:00;;;;;;;18.00;6.70;;;;;;;-4.32;82.19;99164.88;5024343;28;20088;-73
2021/01/30 08:25:51;;;;;;;10.90;5.93;;;;;;;-3.83;81.30;99172.25;5024425;28;20033;-74
2021/01/30 08:28:29;;;;;;;14.90;6.63;;;;;;;-3.65;80.38;99168.56;5025202;28;20033;-74
2021/01/30 08:30:56;;;;;;;12.70;5.97;;;;;;;-3.68;79.69;99163.41;5025234;28;20060;-74
2021/01/30 08:33:21;;;;;;;15.13;6.53;;;;;;;-3.81;79.72;99164.69;5025350;28;20026;-73
2021/01/30 08:35:50;;;;;;;12.63;6.07;;;;;;;-3.81;80.46;99157.09;5025958;28;20029;-74
2021/01/30 08:38:16;;;;;;;12.02;6.88;;;;;;;-3.59;80.60;99163.66;5025851;28;20035;-74
2021/01/30 08:40:58;;;;;;;14.10;6.03;;;;;;;-3.41;80.16;99160.78;5024110;28;20025;-75
2021/01/30 08:43:39;;;;;;;12.93;6.07;;;;;;;-3.50;79.38;99161.38;5025444;28;20090;-74
2021/01/30 08:46:26;;;;;;;14.88;6.60;;;;;;;-3.50;79.52;99156.31;5024458;28;20030;-74
2021/01/30 08:49:09;;;;;;;13.80;7.10;;;;;;;-3.46;79.69;99153.84;5025140;28;20014;-74
2021/01/30 08:51:34;;;;;;;13.98;7.03;;;;;;;-3.29;79.95;99144.19;5025126;28;20052;-74
2021/01/30 08:54:39;;;;;;;10.82;5.90;;;;;;;-3.04;79.47;99150.78;5024920;28;20030;-76
2021/01/30 08:57:25;;;;;;;12.60;6.30;;;;;;;-3.08;78.42;99146.44;5024114;28;20042;-75
2021/01/30 08:59:52;;;;;;;9.95;5.07;;;;;;;-3.27;77.49;99151.00;5024256;28;20089;-75
2021/01/30 09:02:27;;;;;;;11.15;5.60;;;;;;;-3.54;77.53;99151.09;5025130;28;20022;-76
2021/01/30 09:05:04;;;;;;;8.98;4.60;;;;;;;-3.72;77.29;99148.91;5025081;28;20029;-75
2021/01/30 09:07:51;;;;;;;7.93;4.78;;;;;;;-3.38;78.01;99154.94;5024454;28;20482;-75
2021/01/30 09:10:22;;;;;;;9.63;4.32;;;;;;;-2.95;77.36;99149.28;5024782;28;20037;-75
2021/01/30 09:12:55;;;;;;;8.73;5.97;;;;;;;-2.31;77.20;99146.63;5024492;28;20275;-74
2021/01/30 09:15:42;;;;;;;7.25;4.60;;;;;;;-1.48;75.48;99144.97;5023162;28;20029;-75
2021/01/30 09:18:22;;;;;;;7.85;4.85;;;;;;;-0.90;74.38;99142.72;5024713;28;20033;-75
2021/01/30 09:20:51;;;;;;;8.70;4.55;;;;;;;-0.21;73.60;99135.28;5022954;28;20030;-75
2021/01/30 09:23:25;;;;;;;7.10;4.78;;;;;;;0.45;73.58;99135.31;5024619;28;20114;-76
2021/01/30 09:25:55;;;;;;;6.95;4.82;;;;;;;1.34;70.79;99140.50;5024762;28;20039;-74
2021/01/30 09:28:32;;;;;;;7.25;4.68;;;;;;;1.75;70.07;99130.56;5024607;28;20030;-74
2021/01/30 09:31:01;;;;;;;10.02;5.22;;;;;;;2.16;69.49;99111.19;5023269;28;20045;-75
2021/01/30 09:33:37;;;;;;;8.15;5.30;;;;;;;2.63;68.65;99126.75;5025051;28;20051;-75
2021/01/30 09:36:16;;;;;;;7.07;4.65;;;;;;;3.08;68.32;99129.44;5024560;28;20117;-75
2021/01/30 09:38:47;;;;;;;10.50;4.80;;;;;;;3.53;66.99;99123.47;5024275;28;20033;-73
2021/01/30 09:41:24;;;;;;;9.05;4.72;;;;;;;3.75;64.63;99134.59;5024344;28;20394;-75
2021/01/30 09:44:07;;;;;;;7.60;5.30;;;;;;;3.69;65.46;99130.31;5022782;28;20080;-74
2021/01/30 09:46:36;;;;;;;5.88;3.90;;;;;;;4.06;65.48;99131.09;5024150;28;20025;-77
2021/01/30 09:49:05;;;;;;;7.43;4.70;;;;;;;3.97;65.18;99134.56;5024431;28;20133;-77
2021/01/30 09:51:30;;;;;;;6.85;4.85;;;;;;;3.84;65.48;99129.44;5024058;28;20045;-77
2021/01/30 09:54:00;;;;;;;5.05;3.72;;;;;;;3.44;66.40;99126.88;5024209;28;20021;-77
2021/01/30 09:56:34;;;;;;;6.53;3.60;;;;;;;3.41;67.47;99130.31;5024016;28;20018;-77
2021/01/30 09:59:00;;;;;;;6.50;3.90;;;;;;;3.41;67.59;99126.88;5023794;28;20022;-76
2021/01/30 10:01:29;;;;;;;9.32;4.80;;;;;;;3.58;68.30;99130.31;5039084;28;20060;-77
2021/01/30 10:03:55;;;;;;;4.95;3.85;;;;;;;3.62;68.66;99120.91;5024062;28;20050;-76
2021/01/30 10:06:31;;;;;;;7.75;4.30;;;;;;;4.18;68.54;99136.22;5024052;28;20045;-76
2021/01/30 10:09:07;;;;;;;6.00;4.20;;;;;;;4.54;67.96;99123.22;5024123;28;20033;-76
2021/01/30 10:11:35;;;;;;;5.60;3.90;;;;;;;5.13;68.08;99121.22;5022531;28;20120;-75
2021/01/30 10:14:01;;;;;;;6.22;3.90;;;;;;;5.76;64.92;99126.72;5023477;28;20130;-76
2021/01/30 10:16:27;;;;;;;6.88;4.63;;;;;;;6.32;61.45;99127.03;5023910;28;20029;-75
2021/01/30 10:18:58;;;;;;;6.15;4.18;;;;;;;6.59;61.09;99123.25;5023830;28;20029;-75
2021/01/30 10:21:53;;;;;;;5.18;3.85;;;;;;;6.87;60.32;99121.16;5022482;28;20025;-74
2021/01/30 10:24:21;;;;;;;5.78;4.25;;;;;;;7.04;58.28;99122.66;5023323;28;20227;-75
2021/01/30 10:26:49;;;;;;;5.13;3.47;;;;;;;7.52;58.01;99115.91;5023641;28;20033;-75
2021/01/30 10:29:18;;;;;;;6.50;4.40;;;;;;;8.03;57.88;99115.00;5023646;28;20014;-76
2021/01/30 10:31:51;;;;;;;8.27;4.75;;;;;;;8.09;55.16;99111.44;5022389;28;20026;-74
2021/01/30 10:34:31;;;;;;;6.85;4.22;;;;;;;8.40;54.14;99105.66;5023794;28;20029;-75
2021/01/30 10:37:02;;;;;;;6.63;4.40;;;;;;;8.58;54.54;99107.94;5023649;28;20033;-75
2021/01/30 10:39:32;;;;;;;6.40;4.05;;;;;;;8.40;53.97;99107.41;5024428;28;20061;-75
2021/01/30 10:42:09;;;;;;;6.10;4.13;;;;;;;7.90;54.67;99108.34;5027630;28;20028;-75
2021/01/30 10:44:35;;;;;;;5.18;3.67;;;;;;;7.12;55.60;99095.00;5027179;28;20069;-76
2021/01/30 10:47:03;;;;;;;4.82;3.60;;;;;;;6.60;56.06;99107.75;5026047;28;20028;-75
2021/01/30 10:49:32;;;;;;;7.97;3.40;;;;;;;5.99;55.60;99098.13;5027214;28;20022;-75
2021/01/30 10:52:09;;;;;;;7.13;3.70;;;;;;;5.68;55.02;99096.75;5027182;28;20429;-75
2021/01/30 10:54:37;;;;;;;4.50;3.67;;;;;;;5.35;54.51;99090.16;5025839;28;20022;-76
2021/01/30 10:57:06;;;;;;;6.45;3.50;;;;;;;5.02;55.52;99105.81;5027190;28;20025;-76
2021/01/30 10:59:44;;;;;;;6.20;3.42;;;;;;;4.44;55.58;99091.56;5025444;28;20037;-75
2021/01/30 11:02:47;;;;;;;7.45;3.75;;;;;;;4.20;56.80;99101.09;5025729;28;20116;-75
2021/01/30 11:05:22;;;;;;;5.88;3.15;;;;;;;4.03;57.29;99095.16;5026831;28;20494;-75
2021/01/30 11:07:51;;;;;;;6.28;3.80;;;;;;;4.02;56.57;99098.59;5025833;28;20061;-75
2021/01/30 11:10:40;;;;;;;6.93;3.60;;;;;;;3.91;57.24;99091.78;5025608;28;20026;-75
2021/01/30 11:13:16;;;;;;;5.50;3.45;;;;;;;4.20;57.18;99102.81;5026729;28;20042;-75
2021/01/30 11:15:43;;;;;;;5.85;3.60;;;;;;;4.65;56.05;99094.06;5026723;28;20094;-75
2021/01/30 11:18:20;;;;;;;6.35;3.50;;;;;;;4.64;55.05;99092.34;5025521;28;20030;-74
2021/01/30 11:20:48;;;;;;;6.00;3.63;;;;;;;4.29;55.51;99097.66;5026551;28;20030;-75
2021/01/30 11:23:38;;;;;;;7.45;4.13;;;;;;;4.39;55.96;99090.75;5026757;28;20041;-75
2021/01/30 11:26:33;;;;;;;8.70;4.20;;;;;;;4.44;55.87;99083.88;5026694;28;20036;-76
2021/01/30 11:29:00;;;;;;;9.98;4.60;;;;;;;4.32;55.90;99081.34;5026291;28;20026;-75
2021/01/30 11:31:26;;;;;;;8.70;3.80;;;;;;;4.55;55.62;99083.81;5026471;28;20025;-75
2021/01/30 11:33:56;;;;;;;7.43;4.22;;;;;;;5.24;54.31;99069.66;5025206;28;20117;-75
2021/01/30 11:36:23;;;;;;;6.53;4.03;;;;;;;6.26;52.74;99077.25;5026246;28;20052;-76
2021/01/30 11:39:05;;;;;;;7.78;3.85;;;;;;;7.48;51.21;99070.31;5026181;28;20077;-76
2021/01/30 11:41:30;;;;;;;7.72;3.92;;;;;;;8.27;48.75;99079.22;5026522;28;20089;-76
2021/01/30 11:43:56;;;;;;;7.75;3.40;;;;;;;7.99;49.33;99072.00;5026114;28;20029;-77
2021/01/30 11:46:21;;;;;;;7.72;3.65;;;;;;;7.10;50.24;99073.53;5026280;28;20022;-76
2021/01/30 11:48:47;;;;;;;4.70;3.22;;;;;;;6.08;51.14;99071.47;5025923;28;20023;-75
2021/01/30 11:51:24;;;;;;;5.13;3.00;;;;;;;5.03;52.29;99074.13;5024939;28;20096;-75
2021/01/30 11:53:49;;;;;;;7.00;3.00;;;;;;;4.25;54.23;99080.53;5026450;28;20087;-75
2021/01/30 11:56:15;;;;;;;8.88;3.08;;;;;;;3.78;55.43;99079.81;5026022;28;20026;-75
2021/01/30 11:58:40;;;;;;;6.05;2.70;;;;;;;3.17;56.23;99056.78;5025880;28;20033;-75